sensor_id;sensor_type;location;lat;lon;timestamp;P1;P2;P0
43479;PMS5003;29067;35.492;-97.520;2022-11-02T00:01:42;3;3;
43479;PMS5003;29067;35.492;-97.520;2022-11-02T00:04:11;5;5;
43479;PMS5003;29067;35.492;-97.520;2022-11-02T00:06:39;3;3;
43479;PMS5003;29067;35.492;-97.520;2022-11-02T00:09:07;4;4;
43479;PMS5003;29067;35.492;-97.520;2022-11-02T00:11:35;3;3;
43479;PMS5003;29067;35.492;-97.520;2022-11-02T00:14:03;4;4;
43479;PMS5003;29067;35.492;-97.520;2022-11-02T00:16:32;5;5;
43479;PMS5003;29067;35.492;-97.520;2022-11-02T00:19:03;4;4;
43479;PMS5003;29067;35.492;-97.520;2022-11-02T00:21:41;4;4;
43479;PMS5003;29067;35.492;-97.520;2022-11-02T00:24:09;4;4;
43479;PMS5003;29067;35.492;-97.520;2022-11-02T00:26:43;3;3;
43479;PMS5003;29067;35.492;-97.520;2022-11-02T00:29:10;6;5;
43479;PMS5003;29067;35.492;-97.520;2022-11-02T00:31:38;5;5;
43479;PMS5003;29067;35.492;-97.520;2022-11-02T00:34:06;4;4;
43479;PMS5003;29067;35.492;-97.520;2022-11-02T00:36:33;5;5;
43479;PMS5003;29067;35.492;-97.520;2022-11-02T00:39:01;5;5;
43479;PMS5003;29067;35.492;-97.520;2022-11-02T00:41:29;5;5;
43479;PMS5003;29067;35.492;-97.520;2022-11-02T00:43:56;4;4;
43479;PMS5003;29067;35.492;-97.520;2022-11-02T00:46:29;7;6;
43479;PMS5003;29067;35.492;-97.520;2022-11-02T00:48:58;6;6;
43479;PMS5003;29067;35.492;-97.520;2022-11-02T00:51:25;5;5;
43479;PMS5003;29067;35.492;-97.520;2022-11-02T00:53:54;7;7;
43479;PMS5003;29067;35.492;-97.520;2022-11-02T00:56:26;5;5;
43479;PMS5003;29067;35.492;-97.520;2022-11-02T00:58:54;7;6;
43479;PMS5003;29067;35.492;-97.520;2022-11-02T01:01:22;6;6;
43479;PMS5003;29067;35.492;-97.520;2022-11-02T01:03:49;6;6;
43479;PMS5003;29067;35.492;-97.520;2022-11-02T01:06:17;6;6;
43479;PMS5003;29067;35.492;-97.520;2022-11-02T01:08:45;7;7;
43479;PMS5003;29067;35.492;-97.520;2022-11-02T01:11:13;7;7;
43479;PMS5003;29067;35.492;-97.520;2022-11-02T01:13:43;9;8;
43479;PMS5003;29067;35.492;-97.520;2022-11-02T01:16:12;7;7;
43479;PMS5003;29067;35.492;-97.520;2022-11-02T01:18:41;7;7;
43479;PMS5003;29067;35.492;-97.520;2022-11-02T01:21:17;9;9;
43479;PMS5003;29067;35.492;-97.520;2022-11-02T01:23:51;9;8;
43479;PMS5003;29067;35.492;-97.520;2022-11-02T01:26:29;7;7;
43479;PMS5003;29067;35.492;-97.520;2022-11-02T01:28:57;7;7;
43479;PMS5003;29067;35.492;-97.520;2022-11-02T01:31:25;8;8;
43479;PMS5003;29067;35.492;-97.520;2022-11-02T01:33:52;8;7;
43479;PMS5003;29067;35.492;-97.520;2022-11-02T01:36:26;6;6;
43479;PMS5003;29067;35.492;-97.520;2022-11-02T01:38:54;9;8;
43479;PMS5003;29067;35.492;-97.520;2022-11-02T01:41:23;6;6;
43479;PMS5003;29067;35.492;-97.520;2022-11-02T01:43:53;7;7;
43479;PMS5003;29067;35.492;-97.520;2022-11-02T01:46:23;7;7;
43479;PMS5003;29067;35.492;-97.520;2022-11-02T01:48:55;5;5;
43479;PMS5003;29067;35.492;-97.520;2022-11-02T01:51:35;6;6;
43479;PMS5003;29067;35.492;-97.520;2022-11-02T01:54:08;7;6;
43479;PMS5003;29067;35.492;-97.520;2022-11-02T01:56:39;6;6;
43479;PMS5003;29067;35.492;-97.520;2022-11-02T01:59:18;7;6;
43479;PMS5003;29067;35.492;-97.520;2022-11-02T02:01:50;7;7;
43479;PMS5003;29067;35.492;-97.520;2022-11-02T02:04:19;5;5;
43479;PMS5003;29067;35.492;-97.520;2022-11-02T02:06:48;6;6;
43479;PMS5003;29067;35.492;-97.520;2022-11-02T02:09:18;4;4;
43479;PMS5003;29067;35.492;-97.520;2022-11-02T02:11:47;8;7;
43479;PMS5003;29067;35.492;-97.520;2022-11-02T02:14:15;7;7;
43479;PMS5003;29067;35.492;-97.520;2022-11-02T02:16:48;7;6;
43479;PMS5003;29067;35.492;-97.520;2022-11-02T02:19:28;6;6;
43479;PMS5003;29067;35.492;-97.520;2022-11-02T02:22:08;8;8;
43479;PMS5003;29067;35.492;-97.520;2022-11-02T02:24:50;9;9;
43479;PMS5003;29067;35.492;-97.520;2022-11-02T02:27:27;7;7;
43479;PMS5003;29067;35.492;-97.520;2022-11-02T02:30:02;7;7;
43479;PMS5003;29067;35.492;-97.520;2022-11-02T02:32:35;6;5;
43479;PMS5003;29067;35.492;-97.520;2022-11-02T02:35:11;7;7;
43479;PMS5003;29067;35.492;-97.520;2022-11-02T02:37:47;9;8;
43479;PMS5003;29067;35.492;-97.520;2022-11-02T02:40:21;5;5;
43479;PMS5003;29067;35.492;-97.520;2022-11-02T02:42:55;5;5;
43479;PMS5003;29067;35.492;-97.520;2022-11-02T02:45:41;7;6;
43479;PMS5003;29067;35.492;-97.520;2022-11-02T02:48:16;8;8;
43479;PMS5003;29067;35.492;-97.520;2022-11-02T02:50:47;8;7;
43479;PMS5003;29067;35.492;-97.520;2022-11-02T02:53:18;8;8;
43479;PMS5003;29067;35.492;-97.520;2022-11-02T02:55:51;8;8;
43479;PMS5003;29067;35.492;-97.520;2022-11-02T02:58:20;7;7;
43479;PMS5003;29067;35.492;-97.520;2022-11-02T03:00:56;6;6;
43479;PMS5003;29067;35.492;-97.520;2022-11-02T03:03:27;8;7;
43479;PMS5003;29067;35.492;-97.520;2022-11-02T03:06:00;9;8;
43479;PMS5003;29067;35.492;-97.520;2022-11-02T03:08:31;7;7;
43479;PMS5003;29067;35.492;-97.520;2022-11-02T03:11:04;6;6;
43479;PMS5003;29067;35.492;-97.520;2022-11-02T03:13:39;9;9;
43479;PMS5003;29067;35.492;-97.520;2022-11-02T03:16:19;8;8;
43479;PMS5003;29067;35.492;-97.520;2022-11-02T03:18:59;8;8;
43479;PMS5003;29067;35.492;-97.520;2022-11-02T03:21:35;9;9;
43479;PMS5003;29067;35.492;-97.520;2022-11-02T03:24:12;9;9;
43479;PMS5003;29067;35.492;-97.520;2022-11-02T03:26:46;7;7;
43479;PMS5003;29067;35.492;-97.520;2022-11-02T03:29:22;6;6;
43479;PMS5003;29067;35.492;-97.520;2022-11-02T03:32:05;8;7;
43479;PMS5003;29067;35.492;-97.520;2022-11-02T03:34:37;8;7;
43479;PMS5003;29067;35.492;-97.520;2022-11-02T03:37:10;10;10;
43479;PMS5003;29067;35.492;-97.520;2022-11-02T03:39:44;8;8;
43479;PMS5003;29067;35.492;-97.520;2022-11-02T03:42:16;9;9;
43479;PMS5003;29067;35.492;-97.520;2022-11-02T03:44:46;8;8;
43479;PMS5003;29067;35.492;-97.520;2022-11-02T03:47:23;9;9;
43479;PMS5003;29067;35.492;-97.520;2022-11-02T03:49:52;8;8;
43479;PMS5003;29067;35.492;-97.520;2022-11-02T03:52:24;10;9;
43479;PMS5003;29067;35.492;-97.520;2022-11-02T03:54:57;11;10;
43479;PMS5003;29067;35.492;-97.520;2022-11-02T03:57:33;9;9;
43479;PMS5003;29067;35.492;-97.520;2022-11-02T04:00:05;11;9;
43479;PMS5003;29067;35.492;-97.520;2022-11-02T04:02:35;9;9;
43479;PMS5003;29067;35.492;-97.520;2022-11-02T04:05:05;9;9;
43479;PMS5003;29067;35.492;-97.520;2022-11-02T04:07:34;8;8;
43479;PMS5003;29067;35.492;-97.520;2022-11-02T04:10:05;11;11;
43479;PMS5003;29067;35.492;-97.520;2022-11-02T04:12:34;11;11;
43479;PMS5003;29067;35.492;-97.520;2022-11-02T04:15:02;9;9;
43479;PMS5003;29067;35.492;-97.520;2022-11-02T04:17:30;9;9;
43479;PMS5003;29067;35.492;-97.520;2022-11-02T04:19:58;10;10;
43479;PMS5003;29067;35.492;-97.520;2022-11-02T04:22:26;10;10;
43479;PMS5003;29067;35.492;-97.520;2022-11-02T04:24:54;10;9;
43479;PMS5003;29067;35.492;-97.520;2022-11-02T04:27:21;10;10;
43479;PMS5003;29067;35.492;-97.520;2022-11-02T04:29:49;11;11;
43479;PMS5003;29067;35.492;-97.520;2022-11-02T04:32:17;9;9;
43479;PMS5003;29067;35.492;-97.520;2022-11-02T04:34:44;10;10;
43479;PMS5003;29067;35.492;-97.520;2022-11-02T04:37:13;7;7;
43479;PMS5003;29067;35.492;-97.520;2022-11-02T04:39:41;11;10;
43479;PMS5003;29067;35.492;-97.520;2022-11-02T04:42:09;9;9;
43479;PMS5003;29067;35.492;-97.520;2022-11-02T04:44:42;15;12;
43479;PMS5003;29067;35.492;-97.520;2022-11-02T04:47:10;11;11;
43479;PMS5003;29067;35.492;-97.520;2022-11-02T04:49:38;9;9;
43479;PMS5003;29067;35.492;-97.520;2022-11-02T04:52:06;9;9;
43479;PMS5003;29067;35.492;-97.520;2022-11-02T04:54:34;10;10;
43479;PMS5003;29067;35.492;-97.520;2022-11-02T04:57:02;12;12;
43479;PMS5003;29067;35.492;-97.520;2022-11-02T04:59:33;10;10;
43479;PMS5003;29067;35.492;-97.520;2022-11-02T05:02:01;9;9;
43479;PMS5003;29067;35.492;-97.520;2022-11-02T05:04:30;11;11;
43479;PMS5003;29067;35.492;-97.520;2022-11-02T05:06:58;10;10;
43479;PMS5003;29067;35.492;-97.520;2022-11-02T05:09:26;11;11;
43479;PMS5003;29067;35.492;-97.520;2022-11-02T05:11:54;10;10;
43479;PMS5003;29067;35.492;-97.520;2022-11-02T05:14:22;10;10;
43479;PMS5003;29067;35.492;-97.520;2022-11-02T05:16:56;11;11;
43479;PMS5003;29067;35.492;-97.520;2022-11-02T05:19:30;12;12;
43479;PMS5003;29067;35.492;-97.520;2022-11-02T05:21:57;13;12;
43479;PMS5003;29067;35.492;-97.520;2022-11-02T05:24:30;12;11;
43479;PMS5003;29067;35.492;-97.520;2022-11-02T05:26:58;15;14;
43479;PMS5003;29067;35.492;-97.520;2022-11-02T05:29:27;10;10;
43479;PMS5003;29067;35.492;-97.520;2022-11-02T05:31:55;11;11;
43479;PMS5003;29067;35.492;-97.520;2022-11-02T05:34:24;11;10;
43479;PMS5003;29067;35.492;-97.520;2022-11-02T05:36:52;13;11;
43479;PMS5003;29067;35.492;-97.520;2022-11-02T05:39:20;13;13;
43479;PMS5003;29067;35.492;-97.520;2022-11-02T05:41:48;10;10;
43479;PMS5003;29067;35.492;-97.520;2022-11-02T05:44:17;11;11;
43479;PMS5003;29067;35.492;-97.520;2022-11-02T05:46:50;9;9;
43479;PMS5003;29067;35.492;-97.520;2022-11-02T05:49:17;12;12;
43479;PMS5003;29067;35.492;-97.520;2022-11-02T05:51:45;12;12;
43479;PMS5003;29067;35.492;-97.520;2022-11-02T05:54:13;11;11;
43479;PMS5003;29067;35.492;-97.520;2022-11-02T05:56:41;15;15;
43479;PMS5003;29067;35.492;-97.520;2022-11-02T05:59:09;12;12;
43479;PMS5003;29067;35.492;-97.520;2022-11-02T06:01:38;12;12;
43479;PMS5003;29067;35.492;-97.520;2022-11-02T06:04:06;13;13;
43479;PMS5003;29067;35.492;-97.520;2022-11-02T06:06:33;12;12;
43479;PMS5003;29067;35.492;-97.520;2022-11-02T06:09:01;16;16;
43479;PMS5003;29067;35.492;-97.520;2022-11-02T06:11:29;18;17;
43479;PMS5003;29067;35.492;-97.520;2022-11-02T06:13:57;17;16;
43479;PMS5003;29067;35.492;-97.520;2022-11-02T06:16:30;19;19;
43479;PMS5003;29067;35.492;-97.520;2022-11-02T06:18:57;17;17;
43479;PMS5003;29067;35.492;-97.520;2022-11-02T06:21:25;18;18;
43479;PMS5003;29067;35.492;-97.520;2022-11-02T06:23:53;25;24;
43479;PMS5003;29067;35.492;-97.520;2022-11-02T06:26:21;25;25;
43479;PMS5003;29067;35.492;-97.520;2022-11-02T06:28:48;26;25;
43479;PMS5003;29067;35.492;-97.520;2022-11-02T06:31:16;27;27;
43479;PMS5003;29067;35.492;-97.520;2022-11-02T06:33:44;29;28;
43479;PMS5003;29067;35.492;-97.520;2022-11-02T06:36:12;31;30;
43479;PMS5003;29067;35.492;-97.520;2022-11-02T06:38:40;27;27;
43479;PMS5003;29067;35.492;-97.520;2022-11-02T06:41:08;22;22;
43479;PMS5003;29067;35.492;-97.520;2022-11-02T06:43:37;64;63;
43479;PMS5003;29067;35.492;-97.520;2022-11-02T06:46:05;27;27;
43479;PMS5003;29067;35.492;-97.520;2022-11-02T06:48:33;50;50;
43479;PMS5003;29067;35.492;-97.520;2022-11-02T06:51:01;53;51;
43479;PMS5003;29067;35.492;-97.520;2022-11-02T06:53:30;33;33;
43479;PMS5003;29067;35.492;-97.520;2022-11-02T06:56:03;32;30;
43479;PMS5003;29067;35.492;-97.520;2022-11-02T06:58:32;68;68;
43479;PMS5003;29067;35.492;-97.520;2022-11-02T07:01:02;32;30;
43479;PMS5003;29067;35.492;-97.520;2022-11-02T07:03:32;42;41;
43479;PMS5003;29067;35.492;-97.520;2022-11-02T07:06:02;33;33;
43479;PMS5003;29067;35.492;-97.520;2022-11-02T07:08:31;61;61;
43479;PMS5003;29067;35.492;-97.520;2022-11-02T07:10:59;17;17;
43479;PMS5003;29067;35.492;-97.520;2022-11-02T07:13:27;15;15;
43479;PMS5003;29067;35.492;-97.520;2022-11-02T07:15:55;33;30;
43479;PMS5003;29067;35.492;-97.520;2022-11-02T07:18:24;27;24;
43479;PMS5003;29067;35.492;-97.520;2022-11-02T07:20:54;38;34;
43479;PMS5003;29067;35.492;-97.520;2022-11-02T07:23:33;41;38;
43479;PMS5003;29067;35.492;-97.520;2022-11-02T07:26:11;32;30;
43479;PMS5003;29067;35.492;-97.520;2022-11-02T07:28:49;60;59;
43479;PMS5003;29067;35.492;-97.520;2022-11-02T07:31:19;33;30;
43479;PMS5003;29067;35.492;-97.520;2022-11-02T07:33:47;33;29;
43479;PMS5003;29067;35.492;-97.520;2022-11-02T07:36:16;46;43;
43479;PMS5003;29067;35.492;-97.520;2022-11-02T07:38:49;28;25;
43479;PMS5003;29067;35.492;-97.520;2022-11-02T07:41:17;30;26;
43479;PMS5003;29067;35.492;-97.520;2022-11-02T07:43:45;35;31;
43479;PMS5003;29067;35.492;-97.520;2022-11-02T07:46:12;28;25;
43479;PMS5003;29067;35.492;-97.520;2022-11-02T07:48:50;27;24;
43479;PMS5003;29067;35.492;-97.520;2022-11-02T07:51:26;35;29;
43479;PMS5003;29067;35.492;-97.520;2022-11-02T07:53:55;36;34;
43479;PMS5003;29067;35.492;-97.520;2022-11-02T07:56:24;24;21;
43479;PMS5003;29067;35.492;-97.520;2022-11-02T07:58:52;32;27;
43479;PMS5003;29067;35.492;-97.520;2022-11-02T08:01:31;27;24;
43479;PMS5003;29067;35.492;-97.520;2022-11-02T08:03:59;31;29;
43479;PMS5003;29067;35.492;-97.520;2022-11-02T08:06:27;64;64;
43479;PMS5003;29067;35.492;-97.520;2022-11-02T08:08:54;22;21;
43479;PMS5003;29067;35.492;-97.520;2022-11-02T08:11:22;19;18;
43479;PMS5003;29067;35.492;-97.520;2022-11-02T08:13:50;18;18;
43479;PMS5003;29067;35.492;-97.520;2022-11-02T08:16:18;20;20;
43479;PMS5003;29067;35.492;-97.520;2022-11-02T08:18:46;19;18;
43479;PMS5003;29067;35.492;-97.520;2022-11-02T08:21:14;21;20;
43479;PMS5003;29067;35.492;-97.520;2022-11-02T08:23:41;22;20;
43479;PMS5003;29067;35.492;-97.520;2022-11-02T08:26:10;21;20;
43479;PMS5003;29067;35.492;-97.520;2022-11-02T08:28:38;25;21;
43479;PMS5003;29067;35.492;-97.520;2022-11-02T08:31:08;22;20;
43479;PMS5003;29067;35.492;-97.520;2022-11-02T08:33:40;21;21;
43479;PMS5003;29067;35.492;-97.520;2022-11-02T08:36:08;21;18;
43479;PMS5003;29067;35.492;-97.520;2022-11-02T08:38:37;25;23;
43479;PMS5003;29067;35.492;-97.520;2022-11-02T08:41:04;21;21;
43479;PMS5003;29067;35.492;-97.520;2022-11-02T08:43:33;24;24;
43479;PMS5003;29067;35.492;-97.520;2022-11-02T08:46:00;19;19;
43479;PMS5003;29067;35.492;-97.520;2022-11-02T08:48:28;24;22;
43479;PMS5003;29067;35.492;-97.520;2022-11-02T08:50:57;23;23;
43479;PMS5003;29067;35.492;-97.520;2022-11-02T08:53:25;23;23;
43479;PMS5003;29067;35.492;-97.520;2022-11-02T08:55:55;19;19;
43479;PMS5003;29067;35.492;-97.520;2022-11-02T08:58:23;27;26;
43479;PMS5003;29067;35.492;-97.520;2022-11-02T09:00:52;23;23;
43479;PMS5003;29067;35.492;-97.520;2022-11-02T09:03:20;24;21;
43479;PMS5003;29067;35.492;-97.520;2022-11-02T09:05:48;24;24;
43479;PMS5003;29067;35.492;-97.520;2022-11-02T09:08:17;25;24;
43479;PMS5003;29067;35.492;-97.520;2022-11-02T09:10:46;24;23;
43479;PMS5003;29067;35.492;-97.520;2022-11-02T09:13:16;24;24;
43479;PMS5003;29067;35.492;-97.520;2022-11-02T09:15:47;25;23;
43479;PMS5003;29067;35.492;-97.520;2022-11-02T09:18:16;22;22;
43479;PMS5003;29067;35.492;-97.520;2022-11-02T09:20:49;26;25;
43479;PMS5003;29067;35.492;-97.520;2022-11-02T09:23:18;33;28;
43479;PMS5003;29067;35.492;-97.520;2022-11-02T09:25:46;29;26;
43479;PMS5003;29067;35.492;-97.520;2022-11-02T09:28:15;29;27;
43479;PMS5003;29067;35.492;-97.520;2022-11-02T09:30:43;26;23;
43479;PMS5003;29067;35.492;-97.520;2022-11-02T09:33:11;26;25;
43479;PMS5003;29067;35.492;-97.520;2022-11-02T09:35:40;22;22;
43479;PMS5003;29067;35.492;-97.520;2022-11-02T09:38:09;27;24;
43479;PMS5003;29067;35.492;-97.520;2022-11-02T09:40:38;25;25;
43479;PMS5003;29067;35.492;-97.520;2022-11-02T09:43:09;32;26;
43479;PMS5003;29067;35.492;-97.520;2022-11-02T09:45:52;28;25;
43479;PMS5003;29067;35.492;-97.520;2022-11-02T09:48:25;24;23;
43479;PMS5003;29067;35.492;-97.520;2022-11-02T09:50:57;28;26;
43479;PMS5003;29067;35.492;-97.520;2022-11-02T09:53:35;32;29;
43479;PMS5003;29067;35.492;-97.520;2022-11-02T09:56:10;28;27;
43479;PMS5003;29067;35.492;-97.520;2022-11-02T09:58:43;27;27;
43479;PMS5003;29067;35.492;-97.520;2022-11-02T10:01:20;27;26;
43479;PMS5003;29067;35.492;-97.520;2022-11-02T10:03:58;28;25;
43479;PMS5003;29067;35.492;-97.520;2022-11-02T10:06:44;24;24;
43479;PMS5003;29067;35.492;-97.520;2022-11-02T10:09:23;27;24;
43479;PMS5003;29067;35.492;-97.520;2022-11-02T10:11:58;25;25;
43479;PMS5003;29067;35.492;-97.520;2022-11-02T10:14:36;30;28;
43479;PMS5003;29067;35.492;-97.520;2022-11-02T10:17:09;28;28;
43479;PMS5003;29067;35.492;-97.520;2022-11-02T10:19:42;30;27;
43479;PMS5003;29067;35.492;-97.520;2022-11-02T10:22:14;38;32;
43479;PMS5003;29067;35.492;-97.520;2022-11-02T10:24:42;35;28;
43479;PMS5003;29067;35.492;-97.520;2022-11-02T10:27:13;32;31;
43479;PMS5003;29067;35.492;-97.520;2022-11-02T10:29:46;27;26;
43479;PMS5003;29067;35.492;-97.520;2022-11-02T10:32:23;26;26;
43479;PMS5003;29067;35.492;-97.520;2022-11-02T10:34:51;28;27;
43479;PMS5003;29067;35.492;-97.520;2022-11-02T10:37:25;33;29;
43479;PMS5003;29067;35.492;-97.520;2022-11-02T10:40:08;28;27;
43479;PMS5003;29067;35.492;-97.520;2022-11-02T10:42:50;32;30;
43479;PMS5003;29067;35.492;-97.520;2022-11-02T10:45:36;27;27;
43479;PMS5003;29067;35.492;-97.520;2022-11-02T10:48:17;29;28;
43479;PMS5003;29067;35.492;-97.520;2022-11-02T10:50:58;31;29;
43479;PMS5003;29067;35.492;-97.520;2022-11-02T10:53:34;28;28;
43479;PMS5003;29067;35.492;-97.520;2022-11-02T10:56:07;30;28;
43479;PMS5003;29067;35.492;-97.520;2022-11-02T10:58:43;33;28;
43479;PMS5003;29067;35.492;-97.520;2022-11-02T11:01:16;36;31;
43479;PMS5003;29067;35.492;-97.520;2022-11-02T11:03:52;32;30;
43479;PMS5003;29067;35.492;-97.520;2022-11-02T11:06:25;35;32;
43479;PMS5003;29067;35.492;-97.520;2022-11-02T11:08:58;38;33;
43479;PMS5003;29067;35.492;-97.520;2022-11-02T11:11:30;31;30;
43479;PMS5003;29067;35.492;-97.520;2022-11-02T11:14:02;33;29;
43479;PMS5003;29067;35.492;-97.520;2022-11-02T11:16:33;36;31;
43479;PMS5003;29067;35.492;-97.520;2022-11-02T11:19:04;30;30;
43479;PMS5003;29067;35.492;-97.520;2022-11-02T11:21:43;31;30;
43479;PMS5003;29067;35.492;-97.520;2022-11-02T11:24:18;38;33;
43479;PMS5003;29067;35.492;-97.520;2022-11-02T11:27:14;36;35;
43479;PMS5003;29067;35.492;-97.520;2022-11-02T11:29:45;37;31;
43479;PMS5003;29067;35.492;-97.520;2022-11-02T11:32:16;40;36;
43479;PMS5003;29067;35.492;-97.520;2022-11-02T11:34:48;32;31;
43479;PMS5003;29067;35.492;-97.520;2022-11-02T11:37:21;35;29;
43479;PMS5003;29067;35.492;-97.520;2022-11-02T11:39:53;37;34;
43479;PMS5003;29067;35.492;-97.520;2022-11-02T11:42:33;31;30;
43479;PMS5003;29067;35.492;-97.520;2022-11-02T11:45:03;30;29;
43479;PMS5003;29067;35.492;-97.520;2022-11-02T11:47:39;30;30;
43479;PMS5003;29067;35.492;-97.520;2022-11-02T11:50:11;28;28;
43479;PMS5003;29067;35.492;-97.520;2022-11-02T11:52:40;31;30;
43479;PMS5003;29067;35.492;-97.520;2022-11-02T11:55:25;32;32;
43479;PMS5003;29067;35.492;-97.520;2022-11-02T11:58:12;41;37;
43479;PMS5003;29067;35.492;-97.520;2022-11-02T12:03:01;37;33;
43479;PMS5003;29067;35.492;-97.520;2022-11-02T12:05:39;30;30;
43479;PMS5003;29067;35.492;-97.520;2022-11-02T12:08:27;36;34;
43479;PMS5003;29067;35.492;-97.520;2022-11-02T12:11:12;33;32;
43479;PMS5003;29067;35.492;-97.520;2022-11-02T12:13:54;40;36;
43479;PMS5003;29067;35.492;-97.520;2022-11-02T12:16:46;38;35;
43479;PMS5003;29067;35.492;-97.520;2022-11-02T12:19:29;34;28;
43479;PMS5003;29067;35.492;-97.520;2022-11-02T12:22:15;32;31;
43479;PMS5003;29067;35.492;-97.520;2022-11-02T12:24:55;38;32;
43479;PMS5003;29067;35.492;-97.520;2022-11-02T12:27:33;35;33;
43479;PMS5003;29067;35.492;-97.520;2022-11-02T12:30:11;35;29;
43479;PMS5003;29067;35.492;-97.520;2022-11-02T12:32:57;32;28;
43479;PMS5003;29067;35.492;-97.520;2022-11-02T12:35:39;26;26;
43479;PMS5003;29067;35.492;-97.520;2022-11-02T12:38:20;26;26;
43479;PMS5003;29067;35.492;-97.520;2022-11-02T12:41:13;34;30;
43479;PMS5003;29067;35.492;-97.520;2022-11-02T12:43:58;27;27;
43479;PMS5003;29067;35.492;-97.520;2022-11-02T12:46:38;34;30;
43479;PMS5003;29067;35.492;-97.520;2022-11-02T12:49:31;27;26;
43479;PMS5003;29067;35.492;-97.520;2022-11-02T12:52:06;27;24;
43479;PMS5003;29067;35.492;-97.520;2022-11-02T12:54:44;32;28;
43479;PMS5003;29067;35.492;-97.520;2022-11-02T12:57:15;27;25;
43479;PMS5003;29067;35.492;-97.520;2022-11-02T12:59:45;26;25;
43479;PMS5003;29067;35.492;-97.520;2022-11-02T13:02:18;29;28;
43479;PMS5003;29067;35.492;-97.520;2022-11-02T13:04:53;32;27;
43479;PMS5003;29067;35.492;-97.520;2022-11-02T13:07:28;31;27;
43479;PMS5003;29067;35.492;-97.520;2022-11-02T13:10:12;27;26;
43479;PMS5003;29067;35.492;-97.520;2022-11-02T13:12:51;24;24;
43479;PMS5003;29067;35.492;-97.520;2022-11-02T13:15:23;31;31;
43479;PMS5003;29067;35.492;-97.520;2022-11-02T13:17:54;32;31;
43479;PMS5003;29067;35.492;-97.520;2022-11-02T13:20:27;33;27;
43479;PMS5003;29067;35.492;-97.520;2022-11-02T13:23:00;37;32;
43479;PMS5003;29067;35.492;-97.520;2022-11-02T13:25:32;32;30;
43479;PMS5003;29067;35.492;-97.520;2022-11-02T13:28:04;33;30;
43479;PMS5003;29067;35.492;-97.520;2022-11-02T13:30:38;34;32;
43479;PMS5003;29067;35.492;-97.520;2022-11-02T13:33:10;32;32;
43479;PMS5003;29067;35.492;-97.520;2022-11-02T13:35:42;37;33;
43479;PMS5003;29067;35.492;-97.520;2022-11-02T13:38:14;30;29;
43479;PMS5003;29067;35.492;-97.520;2022-11-02T13:41:04;30;29;
43479;PMS5003;29067;35.492;-97.520;2022-11-02T13:43:55;32;29;
43479;PMS5003;29067;35.492;-97.520;2022-11-02T13:46:55;36;33;
43479;PMS5003;29067;35.492;-97.520;2022-11-02T13:49:33;32;30;
43479;PMS5003;29067;35.492;-97.520;2022-11-02T13:52:10;40;36;
43479;PMS5003;29067;35.492;-97.520;2022-11-02T13:54:41;28;28;
43479;PMS5003;29067;35.492;-97.520;2022-11-02T13:57:20;36;34;
43479;PMS5003;29067;35.492;-97.520;2022-11-02T13:59:57;31;30;
43479;PMS5003;29067;35.492;-97.520;2022-11-02T14:02:25;31;30;
43479;PMS5003;29067;35.492;-97.520;2022-11-02T14:04:57;36;32;
43479;PMS5003;29067;35.492;-97.520;2022-11-02T14:07:27;36;31;
43479;PMS5003;29067;35.492;-97.520;2022-11-02T14:10:00;29;29;
43479;PMS5003;29067;35.492;-97.520;2022-11-02T14:12:39;34;31;
43479;PMS5003;29067;35.492;-97.520;2022-11-02T14:15:41;29;29;
43479;PMS5003;29067;35.492;-97.520;2022-11-02T14:18:11;26;25;
43479;PMS5003;29067;35.492;-97.520;2022-11-02T14:20:41;34;32;
43479;PMS5003;29067;35.492;-97.520;2022-11-02T14:23:43;29;27;
43479;PMS5003;29067;35.492;-97.520;2022-11-02T14:28:29;27;23;
43479;PMS5003;29067;35.492;-97.520;2022-11-02T14:31:20;38;35;
43479;PMS5003;29067;35.492;-97.520;2022-11-02T14:34:00;37;35;
43479;PMS5003;29067;35.492;-97.520;2022-11-02T14:36:45;30;28;
43479;PMS5003;29067;35.492;-97.520;2022-11-02T14:39:25;26;24;
43479;PMS5003;29067;35.492;-97.520;2022-11-02T14:42:05;26;22;
43479;PMS5003;29067;35.492;-97.520;2022-11-02T14:45:06;25;23;
43479;PMS5003;29067;35.492;-97.520;2022-11-02T14:47:47;25;23;
43479;PMS5003;29067;35.492;-97.520;2022-11-02T14:50:23;24;23;
43479;PMS5003;29067;35.492;-97.520;2022-11-02T14:52:54;27;27;
43479;PMS5003;29067;35.492;-97.520;2022-11-02T14:55:27;25;24;
43479;PMS5003;29067;35.492;-97.520;2022-11-02T14:57:58;21;21;
43479;PMS5003;29067;35.492;-97.520;2022-11-02T15:00:31;22;21;
43479;PMS5003;29067;35.492;-97.520;2022-11-02T15:03:03;24;24;
43479;PMS5003;29067;35.492;-97.520;2022-11-02T15:05:45;21;21;
43479;PMS5003;29067;35.492;-97.520;2022-11-02T15:08:18;29;26;
43479;PMS5003;29067;35.492;-97.520;2022-11-02T15:10:51;31;31;
43479;PMS5003;29067;35.492;-97.520;2022-11-02T15:13:35;41;41;
43479;PMS5003;29067;35.492;-97.520;2022-11-02T15:16:20;31;23;
43479;PMS5003;29067;35.492;-97.520;2022-11-02T15:18:50;22;22;
43479;PMS5003;29067;35.492;-97.520;2022-11-02T15:21:33;22;22;
43479;PMS5003;29067;35.492;-97.520;2022-11-02T15:24:12;26;24;
43479;PMS5003;29067;35.492;-97.520;2022-11-02T15:26:46;29;29;
43479;PMS5003;29067;35.492;-97.520;2022-11-02T15:29:19;23;23;
43479;PMS5003;29067;35.492;-97.520;2022-11-02T15:31:58;30;26;
43479;PMS5003;29067;35.492;-97.520;2022-11-02T15:34:32;34;33;
43479;PMS5003;29067;35.492;-97.520;2022-11-02T15:37:02;29;29;
43479;PMS5003;29067;35.492;-97.520;2022-11-02T15:39:31;28;27;
43479;PMS5003;29067;35.492;-97.520;2022-11-02T15:42:01;26;24;
43479;PMS5003;29067;35.492;-97.520;2022-11-02T15:44:41;25;24;
43479;PMS5003;29067;35.492;-97.520;2022-11-02T15:47:24;25;25;
43479;PMS5003;29067;35.492;-97.520;2022-11-02T15:50:06;28;24;
43479;PMS5003;29067;35.492;-97.520;2022-11-02T15:52:47;31;31;
43479;PMS5003;29067;35.492;-97.520;2022-11-02T15:55:29;30;28;
43479;PMS5003;29067;35.492;-97.520;2022-11-02T15:58:06;30;25;
43479;PMS5003;29067;35.492;-97.520;2022-11-02T16:00:42;25;24;
43479;PMS5003;29067;35.492;-97.520;2022-11-02T16:03:30;27;25;
43479;PMS5003;29067;35.492;-97.520;2022-11-02T16:06:00;29;29;
43479;PMS5003;29067;35.492;-97.520;2022-11-02T16:08:30;23;21;
43479;PMS5003;29067;35.492;-97.520;2022-11-02T16:11:02;20;18;
43479;PMS5003;29067;35.492;-97.520;2022-11-02T16:13:32;22;20;
43479;PMS5003;29067;35.492;-97.520;2022-11-02T16:16:03;19;18;
43479;PMS5003;29067;35.492;-97.520;2022-11-02T16:18:34;21;21;
43479;PMS5003;29067;35.492;-97.520;2022-11-02T16:21:04;18;18;
43479;PMS5003;29067;35.492;-97.520;2022-11-02T16:23:34;19;17;
43479;PMS5003;29067;35.492;-97.520;2022-11-02T16:26:04;20;19;
43479;PMS5003;29067;35.492;-97.520;2022-11-02T16:28:34;20;20;
43479;PMS5003;29067;35.492;-97.520;2022-11-02T16:31:12;19;19;
43479;PMS5003;29067;35.492;-97.520;2022-11-02T16:33:43;20;20;
43479;PMS5003;29067;35.492;-97.520;2022-11-02T16:36:15;24;23;